Time;durP1;ratioP1;P1;durP2;ratioP2;P2;SDS_P1;SDS_P2;PMS_P1;PMS_P2;Temp;Humidity;BMP_temperature;BMP_pressure;BME280_temperature;BME280_humidity;BME280_pressure;Samples;Min_cycle;Max_cycle;Signal;HPM_P1;HPM_P2
2022/04/23 00:00:07;;;;;;;4.30;0.90;;;;;;;18.59;42.77;101861.47;5032994;28;20496;-49
2022/04/23 00:02:33;;;;;;;2.40;0.75;;;;;;;18.55;40.85;101866.53;5033185;28;20029;-48
2022/04/23 00:05:00;;;;;;;2.67;0.80;;;;;;;18.46;41.69;101860.63;5033351;28;20532;-51
2022/04/23 00:07:26;;;;;;;4.07;1.10;;;;;;;18.15;42.74;101853.59;5033282;28;20104;-49
2022/04/23 00:09:52;;;;;;;3.35;0.80;;;;;;;17.82;43.32;101855.97;5033327;28;20056;-48
2022/04/23 00:12:19;;;;;;;9.32;1.08;;;;;;;17.97;43.60;101858.25;5033070;28;20154;-48
2022/04/23 00:14:45;;;;;;;3.67;0.70;;;;;;;17.91;43.93;101873.56;5033005;28;20045;-51
2022/04/23 00:17:11;;;;;;;2.35;0.60;;;;;;;17.67;43.53;101872.59;5032900;28;20036;-48
2022/04/23 00:19:38;;;;;;;4.38;0.85;;;;;;;17.68;44.22;101872.38;5033059;28;20112;-48
2022/04/23 00:22:04;;;;;;;2.10;0.70;;;;;;;17.93;43.35;101861.44;5032900;28;20021;-48
2022/04/23 00:24:30;;;;;;;2.22;0.80;;;;;;;18.16;44.96;101874.25;5032681;28;20064;-49
2022/04/23 00:26:58;;;;;;;3.53;0.68;;;;;;;18.24;42.99;101883.09;5032154;28;20382;-51
2022/04/23 00:29:24;;;;;;;3.05;0.80;;;;;;;18.42;42.40;101880.28;5033274;28;20474;-48
2022/04/23 00:31:50;;;;;;;5.25;0.82;;;;;;;18.50;41.66;101877.25;5032892;28;20026;-50
2022/04/23 00:34:17;;;;;;;4.53;0.82;;;;;;;18.42;43.28;101880.28;5032130;28;20025;-48
2022/04/23 00:36:43;;;;;;;3.47;0.70;;;;;;;18.33;41.86;101881.72;5032449;28;20036;-48
2022/04/23 00:39:09;;;;;;;1.05;0.40;;;;;;;18.58;41.15;101885.03;5033642;28;20065;-50
2022/04/23 00:41:48;;;;;;;2.17;0.50;;;;;;;18.65;42.04;101891.16;5032778;28;20508;-52
2022/04/23 00:44:15;;;;;;;4.13;0.75;;;;;;;18.36;42.81;101881.22;5032665;28;20037;-51
2022/04/23 00:46:42;;;;;;;3.45;0.90;;;;;;;18.29;44.87;101894.88;5032638;28;20018;-51
2022/04/23 00:49:09;;;;;;;11.32;1.00;;;;;;;18.35;43.35;101901.25;5033369;28;20030;-50
2022/04/23 00:51:36;;;;;;;2.97;0.90;;;;;;;18.07;44.36;101901.88;5033029;28;20022;-51
2022/04/23 00:54:05;;;;;;;3.72;0.88;;;;;;;18.06;44.08;101903.78;5032780;28;20532;-49
2022/04/23 00:56:33;;;;;;;6.15;0.75;;;;;;;18.00;43.26;101901.97;5033289;28;20439;-50
2022/04/23 00:58:59;;;;;;;3.22;0.60;;;;;;;17.85;44.58;101912.38;5036902;28;20021;-49
2022/04/23 01:01:26;;;;;;;6.40;0.85;;;;;;;17.59;44.44;101919.75;5036931;28;20032;-51
2022/04/23 01:03:53;;;;;;;2.60;0.90;;;;;;;17.49;44.89;101914.06;5036578;28;20477;-51
2022/04/23 01:06:20;;;;;;;5.05;0.65;;;;;;;17.40;44.34;101918.09;5036519;28;20116;-51
2022/04/23 01:08:47;;;;;;;4.30;0.90;;;;;;;17.20;45.44;101909.34;5036662;28;20025;-51
2022/04/23 01:11:13;;;;;;;3.15;0.93;;;;;;;17.05;46.15;101917.84;5036465;28;20440;-51
2022/04/23 01:13:44;;;;;;;2.20;0.70;;;;;;;16.95;44.96;101918.34;5036256;28;20026;-50
2022/04/23 01:16:11;;;;;;;7.65;1.27;;;;;;;17.08;45.72;101914.69;5036457;28;20036;-51
2022/04/23 01:18:42;;;;;;;4.68;0.90;;;;;;;17.11;45.73;101919.66;5036311;28;20029;-51
2022/04/23 01:21:10;;;;;;;2.53;0.70;;;;;;;17.17;45.28;101913.34;5036197;28;20045;-50
2022/04/23 01:23:43;;;;;;;3.05;0.77;;;;;;;17.14;45.89;101921.91;5036366;28;20473;-52
2022/04/23 01:26:10;;;;;;;3.30;0.70;;;;;;;17.06;44.68;101914.91;5035999;28;20462;-50
2022/04/23 01:28:37;;;;;;;5.03;0.95;;;;;;;17.03;44.38;101915.34;5036187;28;20049;-51
2022/04/23 01:31:05;;;;;;;4.93;0.77;;;;;;;16.89;45.01;101921.94;5036220;28;20108;-52
2022/04/23 01:33:33;;;;;;;5.47;0.80;;;;;;;16.78;45.21;101917.25;5035791;28;20047;-52
2022/04/23 01:35:59;;;;;;;2.75;0.80;;;;;;;16.75;45.26;101928.50;5036076;28;20049;-52
2022/04/23 01:38:25;;;;;;;3.08;0.95;;;;;;;16.58;46.76;101923.59;5035755;28;20389;-52
2022/04/23 01:40:52;;;;;;;4.35;0.90;;;;;;;16.53;46.42;101923.44;5035563;28;20036;-53
2022/04/23 01:43:18;;;;;;;5.65;1.00;;;;;;;16.33;45.89;101923.59;5035880;28;20112;-53
2022/04/23 01:45:44;;;;;;;3.28;0.80;;;;;;;16.21;46.98;101928.03;5036743;28;20029;-52
2022/04/23 01:48:11;;;;;;;2.58;0.80;;;;;;;16.08;47.38;101926.22;5036002;28;20073;-53
2022/04/23 01:50:37;;;;;;;4.63;1.35;;;;;;;16.13;47.79;101933.66;5035790;28;20030;-53
2022/04/23 01:53:05;;;;;;;2.85;1.13;;;;;;;16.27;47.64;101924.47;5036130;28;20076;-54
2022/04/23 01:55:31;;;;;;;2.90;1.05;;;;;;;16.32;47.37;101937.28;5035722;28;20025;-54
2022/04/23 01:57:58;;;;;;;3.55;0.93;;;;;;;16.42;46.71;101939.53;5035795;28;20032;-53
2022/04/23 02:00:24;;;;;;;5.63;1.27;;;;;;;16.26;46.87;101930.88;5035578;28;20052;-53
2022/04/23 02:02:50;;;;;;;2.58;0.88;;;;;;;16.46;46.89;101938.03;5035309;28;20095;-52
2022/04/23 02:05:17;;;;;;;4.88;0.90;;;;;;;16.39;47.06;101938.09;5035624;28;20060;-53
2022/04/23 02:07:44;;;;;;;2.60;1.00;;;;;;;16.45;46.46;101945.31;5035148;28;20065;-53
2022/04/23 02:10:13;;;;;;;4.18;0.75;;;;;;;16.32;47.15;101954.34;5035281;28;20471;-54
2022/04/23 02:12:40;;;;;;;4.80;0.95;;;;;;;15.95;48.35;101957.88;5035209;28;20067;-51
2022/04/23 02:15:11;;;;;;;2.05;0.75;;;;;;;16.05;48.26;101956.38;5035007;28;20049;-54
2022/04/23 02:17:43;;;;;;;5.38;1.02;;;;;;;15.83;48.70;101950.44;5035062;28;20029;-54
2022/04/23 02:20:15;;;;;;;3.47;1.77;;;;;;;15.86;49.13;101951.88;5035724;28;20024;-54
2022/04/23 02:22:42;;;;;;;4.65;1.00;;;;;;;15.78;48.92;101954.81;5034953;28;20478;-53
2022/04/23 02:25:08;;;;;;;3.35;1.23;;;;;;;15.82;48.65;101956.88;5035199;28;20079;-54
2022/04/23 02:27:41;;;;;;;4.97;1.00;;;;;;;15.69;48.99;101961.47;5034780;28;20057;-53
2022/04/23 02:30:08;;;;;;;5.72;1.10;;;;;;;15.55;48.84;101961.50;5035125;28;20037;-53
2022/04/23 02:32:34;;;;;;;2.63;1.08;;;;;;;15.54;48.79;101962.50;5035144;28;20079;-54
2022/04/23 02:35:01;;;;;;;4.90;1.08;;;;;;;15.46;48.38;101970.03;5035034;28;20049;-54
2022/04/23 02:37:28;;;;;;;4.63;0.98;;;;;;;15.23;48.58;101973.19;5034953;28;20025;-53
2022/04/23 02:39:54;;;;;;;3.08;1.10;;;;;;;14.89;49.41;101976.94;5034898;28;20021;-53
2022/04/23 02:42:20;;;;;;;5.15;0.77;;;;;;;14.97;49.90;101980.22;5034892;28;20028;-53
2022/04/23 02:44:48;;;;;;;4.07;0.75;;;;;;;14.95;50.65;101989.56;5034878;28;20473;-54
2022/04/23 02:47:14;;;;;;;5.00;0.90;;;;;;;14.67;50.79;101979.81;5034661;28;20493;-53
2022/04/23 02:49:41;;;;;;;4.82;1.30;;;;;;;14.69;50.60;101988.50;5034599;28;20029;-53
2022/04/23 02:52:07;;;;;;;5.70;1.27;;;;;;;14.58;50.93;101981.03;5033226;28;20426;-54
2022/04/23 02:54:33;;;;;;;4.78;1.02;;;;;;;14.35;52.13;101977.84;5034582;28;20056;-53
2022/04/23 02:57:01;;;;;;;4.90;1.30;;;;;;;14.34;51.76;101990.47;5034503;28;20069;-52
2022/04/23 02:59:27;;;;;;;3.95;1.25;;;;;;;14.30;52.19;101991.91;5034410;28;20383;-53
2022/04/23 03:01:53;;;;;;;5.45;1.40;;;;;;;14.39;52.38;101987.19;5034207;28;20498;-52
2022/04/23 03:04:19;;;;;;;4.82;0.90;;;;;;;14.08;52.60;101993.06;5034518;28;20034;-52
2022/04/23 03:06:46;;;;;;;2.90;1.00;;;;;;;14.07;52.17;102000.31;5034302;28;20036;-53
2022/04/23 03:09:12;;;;;;;2.58;0.70;;;;;;;13.88;53.04;101996.53;5034218;28;20427;-52
2022/04/23 03:11:38;;;;;;;4.60;1.20;;;;;;;13.72;53.27;102002.22;5034139;28;20481;-53
2022/04/23 03:14:05;;;;;;;3.13;0.75;;;;;;;13.77;53.49;101999.78;5033999;28;20079;-52
2022/04/23 03:16:31;;;;;;;5.20;1.05;;;;;;;13.80;53.27;102003.91;5034512;28;20034;-53
2022/04/23 03:18:57;;;;;;;4.63;1.20;;;;;;;13.81;53.48;102011.78;5034214;28;20072;-53
2022/04/23 03:21:24;;;;;;;5.82;1.30;;;;;;;13.97;53.70;102003.38;5033742;28;20033;-53
2022/04/23 03:23:50;;;;;;;4.13;1.05;;;;;;;14.00;54.29;102010.25;5033882;28;20466;-54
2022/04/23 03:26:16;;;;;;;3.67;1.10;;;;;;;13.90;54.12;102010.59;5033923;28;20026;-53
2022/04/23 03:28:42;;;;;;;4.40;1.10;;;;;;;13.96;53.88;102012.50;5033896;28;20497;-53
2022/04/23 03:31:09;;;;;;;5.35;1.70;;;;;;;13.82;54.53;102024.19;5033837;28;20033;-53
2022/04/23 03:33:36;;;;;;;6.25;1.30;;;;;;;13.87;54.65;102035.19;5034042;28;20026;-53
2022/04/23 03:36:02;;;;;;;5.47;1.70;;;;;;;13.91;55.02;102028.41;5033684;28;20029;-53
2022/04/23 03:38:31;;;;;;;7.45;1.25;;;;;;;14.10;53.84;102026.84;5033708;28;20025;-52
2022/04/23 03:40:58;;;;;;;8.40;1.48;;;;;;;14.07;53.82;102037.19;5033549;28;20103;-53
2022/04/23 03:43:25;;;;;;;5.35;1.48;;;;;;;14.20;53.60;102029.97;5034048;28;20053;-53
2022/04/23 03:45:54;;;;;;;4.53;1.42;;;;;;;14.14;53.45;102030.78;5033844;28;20025;-54
2022/04/23 03:48:20;;;;;;;4.95;1.75;;;;;;;13.89;54.64;102043.09;5033529;28;20029;-54
2022/04/23 03:50:48;;;;;;;3.95;1.40;;;;;;;13.97;54.69;102042.94;5033617;28;20116;-53
2022/04/23 03:53:15;;;;;;;6.18;1.42;;;;;;;13.85;54.98;102053.41;5033232;28;20029;-53
2022/04/23 03:55:41;;;;;;;4.82;1.15;;;;;;;13.92;54.78;102059.66;5033557;28;20442;-54
2022/04/23 03:58:08;;;;;;;6.07;1.60;;;;;;;14.03;54.78;102058.28;5033362;28;20025;-54
2022/04/23 04:00:34;;;;;;;5.63;1.90;;;;;;;13.89;55.06;102070.84;5033283;28;20029;-54
2022/04/23 04:03:00;;;;;;;5.65;1.88;;;;;;;13.84;55.28;102073.28;5033776;28;20477;-54
2022/04/23 04:05:28;;;;;;;8.43;1.40;;;;;;;13.75;55.84;102074.47;5033349;28;20100;-53
2022/04/23 04:07:54;;;;;;;5.63;1.40;;;;;;;14.07;55.19;102080.25;5033028;28;20029;-54
2022/04/23 04:10:22;;;;;;;8.10;1.65;;;;;;;13.81;54.55;102081.75;5033211;28;20022;-53
2022/04/23 04:12:50;;;;;;;6.40;1.50;;;;;;;13.69;55.11;102088.72;5033309;28;20539;-54
2022/04/23 04:15:17;;;;;;;7.28;1.35;;;;;;;13.53;55.69;102092.53;5033144;28;20108;-55
2022/04/23 04:17:45;;;;;;;5.43;2.47;;;;;;;13.63;55.68;102100.25;5033006;28;20034;-54
2022/04/23 04:20:14;;;;;;;4.95;1.65;;;;;;;13.64;55.75;102093.84;5032773;28;20029;-54
2022/04/23 04:22:41;;;;;;;6.20;1.40;;;;;;;13.56;56.13;102102.06;5032965;28;20351;-54
2022/04/23 04:25:09;;;;;;;5.63;1.27;;;;;;;13.44;56.57;102099.91;5033151;28;20052;-54
2022/04/23 04:27:36;;;;;;;6.03;1.33;;;;;;;13.42;56.37;102093.88;5032514;28;20105;-53
2022/04/23 04:30:05;;;;;;;7.32;1.08;;;;;;;13.55;56.24;102103.06;5033226;28;20031;-53
2022/04/23 04:32:31;;;;;;;3.20;0.90;;;;;;;13.50;56.37;102103.69;5033264;28;20041;-53
2022/04/23 04:34:58;;;;;;;8.05;1.40;;;;;;;13.52;56.45;102098.09;5033004;28;20053;-54
2022/04/23 04:37:24;;;;;;;3.80;0.88;;;;;;;13.41;57.00;102110.22;5033171;28;20079;-53
2022/04/23 04:39:51;;;;;;;5.00;1.27;;;;;;;13.39;56.99;102106.91;5032773;28;20025;-53
2022/04/23 04:42:17;;;;;;;5.07;1.40;;;;;;;13.45;56.51;102115.03;5033090;28;20119;-54
2022/04/23 04:44:43;;;;;;;2.97;0.93;;;;;;;13.55;56.02;102113.84;5032850;28;20057;-54
2022/04/23 04:47:10;;;;;;;2.92;1.40;;;;;;;13.44;56.28;102116.06;5032751;28;20030;-53
2022/04/23 04:49:38;;;;;;;4.68;1.48;;;;;;;13.41;56.44;102119.13;5032743;28;20478;-54
2022/04/23 04:52:04;;;;;;;7.40;1.15;;;;;;;13.32;57.06;102114.88;5032731;28;20040;-54
2022/04/23 04:54:31;;;;;;;4.95;1.40;;;;;;;13.25;57.17;102118.53;5032604;28;20048;-54
2022/04/23 04:56:57;;;;;;;4.05;1.20;;;;;;;13.19;57.07;102118.25;5032514;28;20052;-54
2022/04/23 04:59:24;;;;;;;2.90;0.82;;;;;;;13.16;57.29;102123.22;5032684;28;20492;-53
2022/04/23 05:01:52;;;;;;;3.60;1.20;;;;;;;13.19;57.38;102120.13;5032339;28;20531;-53
2022/04/23 05:04:19;;;;;;;3.63;0.95;;;;;;;13.09;57.48;102127.66;5032557;28;20034;-53
2022/04/23 05:06:46;;;;;;;4.97;1.65;;;;;;;12.99;57.61;102130.66;5032264;28;20057;-54
2022/04/23 05:09:12;;;;;;;8.10;2.10;;;;;;;12.80;58.61;102137.47;5032594;28;20029;-54
2022/04/23 05:11:39;;;;;;;5.30;1.83;;;;;;;12.90;58.07;102135.31;5032531;28;20029;-54
2022/04/23 05:14:05;;;;;;;8.85;1.98;;;;;;;12.24;60.30;102134.50;5032233;28;20026;-54
2022/04/23 05:16:31;;;;;;;8.70;2.63;;;;;;;11.45;63.42;102141.28;5032758;28;20033;-53
2022/04/23 05:18:57;;;;;;;7.05;2.40;;;;;;;11.39;63.60;102139.31;5032077;28;20021;-53
2022/04/23 05:21:23;;;;;;;4.82;2.10;;;;;;;11.67;62.44;102132.38;5032487;28;20060;-53
2022/04/23 05:23:50;;;;;;;6.00;1.85;;;;;;;11.74;62.51;102143.22;5032475;28;20099;-55
2022/04/23 05:26:16;;;;;;;7.53;1.48;;;;;;;11.24;64.03;102140.09;5032198;28;20032;-53
2022/04/23 05:28:42;;;;;;;8.50;2.00;;;;;;;10.97;64.82;102137.94;5032106;28;20049;-52
2022/04/23 05:31:09;;;;;;;7.07;1.95;;;;;;;10.60;65.94;102142.13;5032204;28;20030;-53
2022/04/23 05:33:36;;;;;;;6.28;1.88;;;;;;;10.34;67.17;102144.25;5032399;28;20520;-53
2022/04/23 05:36:06;;;;;;;6.00;1.80;;;;;;;10.27;68.10;102139.59;5031038;28;20395;-53
2022/04/23 05:38:36;;;;;;;9.73;2.28;;;;;;;10.33;67.66;102143.44;5032271;28;20069;-53
2022/04/23 05:41:04;;;;;;;6.75;2.15;;;;;;;10.64;66.42;102135.41;5032091;28;20045;-53
2022/04/23 05:43:30;;;;;;;10.65;2.22;;;;;;;10.87;65.63;102140.81;5032475;28;20394;-54
2022/04/23 05:45:57;;;;;;;5.70;1.52;;;;;;;11.02;65.05;102139.06;5035820;28;20021;-54
2022/04/23 05:48:24;;;;;;;8.48;1.77;;;;;;;11.08;64.58;102137.53;5036040;28;20040;-54
2022/04/23 05:50:51;;;;;;;4.38;1.35;;;;;;;10.96;64.89;102129.06;5035521;28;20466;-54
2022/04/23 05:53:17;;;;;;;9.00;1.90;;;;;;;10.71;65.84;102132.88;5035542;28;20122;-53
2022/04/23 05:55:43;;;;;;;4.43;1.20;;;;;;;10.73;65.78;102131.69;5035593;28;20025;-54
2022/04/23 05:58:10;;;;;;;5.45;1.30;;;;;;;10.76;65.61;102135.84;5035539;28;20032;-54
2022/04/23 06:00:36;;;;;;;4.72;1.20;;;;;;;10.44;66.59;102135.03;5035595;28;20412;-53
2022/04/23 06:03:02;;;;;;;5.63;1.48;;;;;;;10.42;66.73;102131.66;5035386;28;20033;-53
2022/04/23 06:05:28;;;;;;;5.60;0.95;;;;;;;10.43;66.55;102136.00;5035759;28;20390;-53
2022/04/23 06:07:55;;;;;;;6.95;1.60;;;;;;;10.60;65.84;102130.59;5035543;28;20072;-54
2022/04/23 06:10:21;;;;;;;6.13;1.85;;;;;;;9.64;69.25;102143.00;5035652;28;20021;-54
2022/04/23 06:12:47;;;;;;;6.28;1.88;;;;;;;9.24;70.45;102138.50;5035723;28;20037;-53
2022/04/23 06:15:13;;;;;;;4.53;1.98;;;;;;;9.32;70.46;102140.31;5035184;28;20029;-53
2022/04/23 06:17:39;;;;;;;7.80;3.05;;;;;;;9.58;69.57;102141.00;5035331;28;20033;-53
2022/04/23 06:20:06;;;;;;;9.15;4.18;;;;;;;9.64;69.17;102139.50;5034939;28;20033;-53
2022/04/23 06:22:33;;;;;;;10.02;3.22;;;;;;;9.81;68.68;102130.47;5035061;28;20021;-54
2022/04/23 06:24:59;;;;;;;4.85;2.38;;;;;;;9.75;68.46;102140.00;5035108;28;20096;-55
2022/04/23 06:27:28;;;;;;;12.27;6.32;;;;;;;9.55;69.31;102141.34;5034911;28;20103;-53
2022/04/23 06:29:54;;;;;;;21.65;11.32;;;;;;;9.30;70.71;102135.16;5035112;28;20044;-53
2022/04/23 06:32:21;;;;;;;20.02;9.95;;;;;;;9.46;70.02;102145.03;5017072;28;20420;-53
2022/04/23 06:34:47;;;;;;;20.33;10.23;;;;;;;9.65;69.10;102142.00;5034785;28;20049;-54
2022/04/23 06:37:13;;;;;;;22.55;11.18;;;;;;;9.42;70.08;102143.69;5035018;28;20021;-54
2022/04/23 06:39:39;;;;;;;22.38;10.63;;;;;;;8.93;71.57;102140.94;5034980;28;20030;-53
2022/04/23 06:42:06;;;;;;;11.10;5.47;;;;;;;8.53;73.60;102137.13;5034816;28;20021;-55
2022/04/23 06:44:32;;;;;;;13.43;6.47;;;;;;;8.65;73.17;102138.50;5034550;28;20373;-54
2022/04/23 06:46:58;;;;;;;14.48;7.60;;;;;;;8.77;73.10;102135.53;5034653;28;20041;-54
2022/04/23 06:49:27;;;;;;;13.52;6.10;;;;;;;8.96;72.25;102138.78;5034828;28;20082;-54
2022/04/23 06:51:55;;;;;;;15.85;7.25;;;;;;;8.70;73.28;102136.19;5034590;28;20074;-53
2022/04/23 06:54:22;;;;;;;12.57;6.47;;;;;;;8.60;73.65;102138.16;5034276;28;20029;-52
2022/04/23 06:56:49;;;;;;;13.57;6.53;;;;;;;8.40;74.67;102137.59;5034208;28;20034;-54
2022/04/23 06:59:15;;;;;;;9.95;5.15;;;;;;;8.52;74.27;102138.16;5034326;28;20026;-51
2022/04/23 07:01:41;;;;;;;8.85;3.65;;;;;;;8.77;73.31;102139.06;5034539;28;20163;-53
2022/04/23 07:04:11;;;;;;;8.32;2.90;;;;;;;8.68;73.31;102142.72;5034770;28;20021;-54
2022/04/23 07:06:37;;;;;;;7.90;2.58;;;;;;;8.43;74.36;102147.09;5034182;28;20021;-54
2022/04/23 07:09:05;;;;;;;8.18;3.28;;;;;;;8.29;75.36;102142.34;5034215;28;20108;-53
2022/04/23 07:11:31;;;;;;;9.40;3.70;;;;;;;8.40;75.18;102139.44;5034165;28;20025;-53
2022/04/23 07:13:57;;;;;;;6.00;3.38;;;;;;;8.69;73.78;102134.53;5034058;28;20389;-53
2022/04/23 07:16:23;;;;;;;7.32;3.50;;;;;;;8.93;72.94;102138.25;5034166;28;20026;-53
2022/04/23 07:18:52;;;;;;;8.57;3.08;;;;;;;8.94;72.40;102130.13;5034401;28;20103;-54
2022/04/23 07:21:20;;;;;;;5.65;2.53;;;;;;;8.80;73.00;102136.06;5034644;28;20045;-52
2022/04/23 07:24:05;;;;;;;5.25;2.78;;;;;;;8.83;73.09;102133.09;5033923;28;20120;-54
2022/04/23 07:26:36;;;;;;;8.10;5.60;;;;;;;9.13;71.87;102131.63;5033718;28;20539;-55
2022/04/23 07:29:07;;;;;;;9.15;5.05;;;;;;;9.07;71.57;102129.63;5033735;28;20441;-55
2022/04/23 07:31:34;;;;;;;5.45;2.10;;;;;;;8.83;72.56;102134.91;5033638;28;20474;-54
2022/04/23 07:39:30;;;;;;;6.45;2.30;;;;;;;8.32;74.06;102132.16;5033723;28;20032;-54
2022/04/23 07:41:56;;;;;;;7.65;1.92;;;;;;;8.12;75.21;102136.91;5033488;28;20481;-53
2022/04/23 07:44:23;;;;;;;11.60;2.45;;;;;;;8.04;75.67;102128.03;5033427;28;20029;-53
2022/04/23 07:46:50;;;;;;;5.10;1.55;;;;;;;8.03;75.74;102132.53;5033728;28;20033;-53
2022/04/23 07:49:17;;;;;;;6.97;1.65;;;;;;;8.01;75.83;102134.53;5033420;28;20087;-54
2022/04/23 07:51:46;;;;;;;4.22;1.45;;;;;;;7.86;76.31;102134.25;5033729;28;20394;-51
2022/04/23 07:54:13;;;;;;;5.03;1.10;;;;;;;7.85;76.15;102134.41;5033425;28;20037;-53
2022/04/23 07:56:40;;;;;;;6.38;1.60;;;;;;;7.83;76.38;102139.09;5033682;28;20034;-54
2022/04/23 07:59:06;;;;;;;8.13;1.70;;;;;;;7.93;76.01;102143.28;5033372;28;20021;-53
2022/04/23 08:01:32;;;;;;;5.80;1.35;;;;;;;8.03;75.39;102143.19;5033125;28;20374;-54
2022/04/23 08:04:02;;;;;;;6.88;1.90;;;;;;;7.98;75.94;102145.50;5033219;28;20026;-54
2022/04/23 08:06:29;;;;;;;4.72;1.30;;;;;;;7.83;76.08;102155.06;5032328;28;20029;-53
2022/04/23 08:08:55;;;;;;;7.10;1.48;;;;;;;7.83;75.99;102147.06;5033416;28;20056;-53
2022/04/23 08:11:24;;;;;;;3.25;1.33;;;;;;;7.72;76.63;102152.63;5032797;28;20034;-54
2022/04/23 08:13:51;;;;;;;4.60;1.20;;;;;;;7.63;77.05;102157.91;5033212;28;20082;-54
2022/04/23 08:16:17;;;;;;;5.13;1.30;;;;;;;7.67;76.89;102159.28;5032910;28;20056;-54
2022/04/23 08:18:44;;;;;;;6.15;0.95;;;;;;;7.70;77.14;102162.63;5032823;28;20160;-54
2022/04/23 08:21:10;;;;;;;4.78;1.77;;;;;;;7.84;76.42;102156.75;5033060;28;20083;-54
2022/04/23 08:23:36;;;;;;;5.30;1.27;;;;;;;7.94;76.07;102152.16;5032893;28;20021;-54
2022/04/23 08:26:05;;;;;;;5.28;1.48;;;;;;;7.85;76.28;102158.41;5032953;28;20025;-54
2022/04/23 08:31:16;;;;;;;7.03;1.37;;;;;;;7.84;76.54;102154.06;5033227;28;20052;-54
2022/04/23 08:34:00;;;;;;;5.05;0.93;;;;;;;8.13;75.67;102151.09;5032640;28;20052;-54
2022/04/23 08:36:35;;;;;;;4.53;1.45;;;;;;;8.35;74.62;102145.22;5032580;28;20441;-54
2022/04/23 08:39:02;;;;;;;6.57;1.45;;;;;;;8.70;73.15;102154.88;5032865;28;20021;-54
2022/04/23 08:41:29;;;;;;;7.75;1.25;;;;;;;8.72;72.83;102157.41;5032609;28;20045;-54
2022/04/23 08:44:05;;;;;;;4.35;1.25;;;;;;;8.77;72.50;102143.56;5032772;28;20088;-54
2022/04/23 08:46:38;;;;;;;4.53;1.00;;;;;;;8.84;71.81;102148.09;5032551;28;20025;-54
2022/04/23 08:49:08;;;;;;;6.25;1.50;;;;;;;8.86;71.58;102150.59;5032580;28;20036;-55
2022/04/23 08:51:35;;;;;;;3.63;1.58;;;;;;;8.69;72.06;102150.53;5032926;28;20033;-53
2022/04/23 08:54:07;;;;;;;6.85;1.23;;;;;;;8.37;73.63;102153.06;5032524;28;20059;-54
2022/04/23 08:56:35;;;;;;;5.30;1.02;;;;;;;8.48;73.26;102150.13;5032535;28;20030;-53
2022/04/23 08:59:01;;;;;;;6.90;1.17;;;;;;;8.82;71.87;102143.91;5032176;28;20033;-52
2022/04/23 09:01:32;;;;;;;2.83;1.10;;;;;;;8.90;71.22;102146.63;5032627;28;20038;-53
2022/04/23 09:03:59;;;;;;;4.85;1.27;;;;;;;8.96;70.64;102151.31;5032782;28;20086;-54
2022/04/23 09:06:36;;;;;;;4.30;1.13;;;;;;;9.01;70.54;102148.97;5032330;28;20067;-54
2022/04/23 09:09:07;;;;;;;5.30;1.38;;;;;;;9.15;70.11;102151.00;5032504;28;20029;-54
2022/04/23 09:11:37;;;;;;;6.40;1.10;;;;;;;9.10;69.97;102149.81;5032288;28;20049;-53
2022/04/23 09:14:06;;;;;;;6.30;1.48;;;;;;;9.05;69.86;102142.31;5032371;28;20029;-54
2022/04/23 09:25:10;;;;;;;3.92;1.10;;;;;;;9.25;68.98;102141.00;5036781;28;20792;-54
2022/04/23 09:27:42;;;;;;;6.43;1.70;;;;;;;9.25;69.05;102146.34;5035793;28;20088;-53
2022/04/23 09:30:10;;;;;;;4.75;0.95;;;;;;;9.29;68.87;102146.84;5036263;28;20025;-53
2022/04/23 09:32:37;;;;;;;3.97;1.00;;;;;;;9.17;69.09;102127.63;5036210;28;20057;-53
2022/04/23 09:35:09;;;;;;;5.38;1.23;;;;;;;9.46;68.50;102137.84;5035846;28;20089;-54
2022/04/23 09:40:22;;;;;;;5.95;1.60;;;;;;;9.17;69.27;102135.66;5036489;28;20036;-53
2022/04/23 09:42:56;;;;;;;5.35;1.40;;;;;;;9.08;69.89;102133.13;5035850;28;20025;-53
2022/04/23 09:45:26;;;;;;;3.00;1.02;;;;;;;8.93;71.08;102138.25;5035776;28;20022;-53
2022/04/23 09:47:54;;;;;;;4.70;1.30;;;;;;;9.12;69.78;102139.81;5035472;28;20033;-53
2022/04/23 09:50:20;;;;;;;3.47;1.05;;;;;;;9.03;70.71;102141.63;5035596;28;20033;-53
2022/04/23 09:52:46;;;;;;;5.90;1.50;;;;;;;9.12;70.38;102127.31;5035664;28;20036;-53
2022/04/23 09:55:13;;;;;;;10.63;1.83;;;;;;;9.37;69.21;102121.97;5035926;28;20500;-52
2022/04/23 09:57:40;;;;;;;7.05;1.48;;;;;;;9.21;69.30;102122.78;5035539;28;20048;-54
2022/04/23 10:00:07;;;;;;;8.32;1.48;;;;;;;9.10;69.84;102125.78;5035326;28;20018;-54
2022/04/23 10:02:34;;;;;;;5.85;1.30;;;;;;;8.95;70.50;102125.59;5035632;28;20502;-53
2022/04/23 10:05:02;;;;;;;5.40;1.42;;;;;;;9.07;70.28;102124.28;5035319;28;20171;-54
2022/04/23 10:07:32;;;;;;;4.18;1.35;;;;;;;9.02;70.40;102129.28;5035241;28;20564;-53
2022/04/23 10:10:03;;;;;;;2.95;1.10;;;;;;;8.84;71.74;102128.59;5035079;28;20108;-54
2022/04/23 10:12:33;;;;;;;3.65;1.50;;;;;;;9.07;70.90;102137.63;5034970;28;20390;-53
2022/04/23 10:15:00;;;;;;;5.07;1.30;;;;;;;9.04;70.48;102135.28;5035134;28;20469;-54
2022/04/23 10:17:28;;;;;;;3.72;1.52;;;;;;;8.79;71.82;102144.25;5035028;28;20022;-53
2022/04/23 10:19:55;;;;;;;5.65;1.52;;;;;;;8.91;71.55;102134.94;5035608;28;20472;-53
2022/04/23 10:23:16;;;;;;;6.50;1.70;;;;;;;8.92;71.26;102139.28;5035005;28;20492;-53
2022/04/23 10:26:08;;;;;;;7.32;2.10;;;;;;;8.42;73.83;102132.09;4954894;29;20039;-53
2022/04/23 10:28:34;;;;;;;5.40;1.80;;;;;;;8.44;73.84;102130.13;5033389;28;20041;-52
2022/04/23 10:31:15;;;;;;;7.70;1.65;;;;;;;8.47;73.41;102129.78;5034188;28;20339;-57
2022/04/23 10:33:52;;;;;;;3.40;1.42;;;;;;;8.55;73.28;102132.50;5034541;28;20079;-52
2022/04/23 10:36:19;;;;;;;4.43;1.30;;;;;;;8.46;73.58;102138.78;5034710;28;20044;-53
2022/04/23 10:38:56;;;;;;;9.25;1.73;;;;;;;8.12;75.28;102139.59;5034773;28;20021;-52
2022/04/23 10:41:26;;;;;;;4.85;1.50;;;;;;;8.08;75.16;102140.06;5034803;28;20053;-52
2022/04/23 10:44:04;;;;;;;4.63;1.45;;;;;;;7.75;76.37;102134.50;5034646;28;20022;-52
2022/04/23 10:46:49;;;;;;;5.78;1.50;;;;;;;7.58;77.14;102144.22;5034421;28;20036;-52
2022/04/23 10:49:18;;;;;;;4.63;1.55;;;;;;;7.58;77.36;102141.53;5034490;28;20493;-53
2022/04/23 10:51:53;;;;;;;4.40;1.33;;;;;;;7.71;76.75;102149.13;5034509;28;20053;-53
2022/04/23 10:54:40;;;;;;;6.55;1.58;;;;;;;7.89;76.00;102144.63;5034459;28;20030;-52
2022/04/23 10:57:10;;;;;;;4.28;1.17;;;;;;;8.02;74.88;102135.34;5034141;28;20029;-53
2022/04/23 10:59:48;;;;;;;5.95;1.27;;;;;;;8.16;74.18;102142.75;5034685;28;20013;-52
2022/04/23 11:02:30;;;;;;;7.75;1.38;;;;;;;8.08;74.09;102146.22;5034210;28;20025;-53
2022/04/23 11:13:27;;;;;;;5.72;1.38;;;;;;;7.76;75.53;102151.34;5034574;28;20436;-53
2022/04/23 11:16:12;;;;;;;6.50;1.20;;;;;;;7.93;74.85;102147.78;5034302;28;20033;-53
2022/04/23 11:18:40;;;;;;;8.73;1.60;;;;;;;7.98;74.39;102156.16;5034488;28;20080;-52
2022/04/23 11:21:11;;;;;;;3.20;1.48;;;;;;;8.04;74.09;102155.53;5034028;28;20258;-52
2022/04/23 11:23:42;;;;;;;7.72;1.45;;;;;;;8.10;73.95;102154.91;5034122;28;20397;-53
2022/04/23 11:26:12;;;;;;;5.07;1.42;;;;;;;7.70;75.97;102160.78;5033747;28;20030;-52
2022/04/23 11:28:42;;;;;;;9.40;1.80;;;;;;;7.92;74.70;102157.63;5033506;28;20545;-52
2022/04/23 11:31:10;;;;;;;5.78;1.35;;;;;;;7.68;75.78;102154.78;5034049;28;20025;-53
2022/04/23 11:33:36;;;;;;;4.93;1.70;;;;;;;7.86;74.76;102152.91;5033825;28;20056;-53
2022/04/23 11:36:04;;;;;;;8.55;1.80;;;;;;;7.73;75.70;102160.50;5033655;28;20104;-52
2022/04/23 11:38:31;;;;;;;7.43;1.98;;;;;;;7.52;76.41;102155.50;5033499;28;20026;-52
2022/04/23 11:40:57;;;;;;;4.25;1.42;;;;;;;7.31;77.87;102160.28;5033294;28;20367;-53
2022/04/23 11:43:35;;;;;;;7.97;1.95;;;;;;;7.02;79.44;102160.50;5033815;28;20036;-53
2022/04/23 11:46:08;;;;;;;7.70;1.75;;;;;;;7.15;78.89;102156.47;5033522;28;20065;-52
2022/04/23 11:48:51;;;;;;;4.28;1.70;;;;;;;7.25;78.34;102158.25;5034379;28;20033;-53
2022/04/23 11:51:20;;;;;;;7.75;1.38;;;;;;;7.38;77.62;102148.03;5033303;28;20032;-54
2022/04/23 11:53:59;;;;;;;7.13;2.15;;;;;;;7.44;76.98;102146.56;5033422;28;20085;-53
2022/04/23 11:56:27;;;;;;;5.00;1.40;;;;;;;7.08;78.84;102146.59;5033450;28;20033;-53
2022/04/23 11:58:56;;;;;;;12.27;1.80;;;;;;;7.04;79.00;102146.03;5033378;28;20025;-51
2022/04/23 12:01:24;;;;;;;8.40;1.67;;;;;;;7.04;79.21;102151.38;5033199;28;20362;-53